sensor_id;sensor_type;location;lat;lon;timestamp;P1;durP1;ratioP1;P2;durP2;ratioP2
36653;SDS011;22650;49.350;20.898;2023-07-31T00:02:23;742.75;;;256.90;;
36653;SDS011;22650;49.350;20.898;2023-07-31T00:04:57;887.65;;;312.15;;
36653;SDS011;22650;49.350;20.898;2023-07-31T00:07:34;888.60;;;305.65;;
36653;SDS011;22650;49.350;20.898;2023-07-31T00:10:16;1043.47;;;386.08;;
36653;SDS011;22650;49.350;20.898;2023-07-31T00:12:51;1382.32;;;503.77;;
36653;SDS011;22650;49.350;20.898;2023-07-31T00:15:29;1455.97;;;503.60;;
36653;SDS011;22650;49.350;20.898;2023-07-31T00:18:09;1303.82;;;491.45;;
36653;SDS011;22650;49.350;20.898;2023-07-31T00:20:51;1367.78;;;512.28;;
36653;SDS011;22650;49.350;20.898;2023-07-31T00:23:30;857.92;;;304.67;;
36653;SDS011;22650;49.350;20.898;2023-07-31T00:26:27;1535.20;;;573.80;;
36653;SDS011;22650;49.350;20.898;2023-07-31T00:29:29;1755.78;;;658.03;;
36653;SDS011;22650;49.350;20.898;2023-07-31T00:32:25;1708.60;;;629.67;;
36653;SDS011;22650;49.350;20.898;2023-07-31T00:35:03;1446.80;;;539.97;;
36653;SDS011;22650;49.350;20.898;2023-07-31T00:37:41;1994.20;;;711.80;;
36653;SDS011;22650;49.350;20.898;2023-07-31T00:40:16;1845.25;;;665.28;;
36653;SDS011;22650;49.350;20.898;2023-07-31T00:42:50;1939.20;;;682.22;;
36653;SDS011;22650;49.350;20.898;2023-07-31T00:45:24;1387.25;;;509.35;;
36653;SDS011;22650;49.350;20.898;2023-07-31T00:47:59;1698.80;;;632.67;;
36653;SDS011;22650;49.350;20.898;2023-07-31T00:50:35;1685.00;;;637.85;;
36653;SDS011;22650;49.350;20.898;2023-07-31T00:53:09;1885.07;;;673.15;;
36653;SDS011;22650;49.350;20.898;2023-07-31T00:55:43;1597.85;;;595.10;;
36653;SDS011;22650;49.350;20.898;2023-07-31T00:58:18;1443.65;;;539.50;;
36653;SDS011;22650;49.350;20.898;2023-07-31T01:00:52;1443.07;;;531.10;;
36653;SDS011;22650;49.350;20.898;2023-07-31T01:03:27;1490.80;;;545.42;;
36653;SDS011;22650;49.350;20.898;2023-07-31T01:06:07;1353.05;;;501.50;;
36653;SDS011;22650;49.350;20.898;2023-07-31T01:08:51;1063.88;;;378.33;;
36653;SDS011;22650;49.350;20.898;2023-07-31T01:11:37;853.65;;;320.17;;
36653;SDS011;22650;49.350;20.898;2023-07-31T01:14:17;726.30;;;259.40;;
36653;SDS011;22650;49.350;20.898;2023-07-31T01:16:56;694.92;;;239.00;;
36653;SDS011;22650;49.350;20.898;2023-07-31T01:19:30;728.67;;;256.20;;
36653;SDS011;22650;49.350;20.898;2023-07-31T01:22:21;671.20;;;223.35;;
36653;SDS011;22650;49.350;20.898;2023-07-31T01:27:53;862.35;;;299.92;;
36653;SDS011;22650;49.350;20.898;2023-07-31T01:30:37;706.70;;;238.32;;
36653;SDS011;22650;49.350;20.898;2023-07-31T01:33:15;702.38;;;247.18;;
36653;SDS011;22650;49.350;20.898;2023-07-31T01:35:50;601.20;;;209.57;;
36653;SDS011;22650;49.350;20.898;2023-07-31T01:38:25;473.20;;;187.07;;
36653;SDS011;22650;49.350;20.898;2023-07-31T01:41:02;536.50;;;183.35;;
36653;SDS011;22650;49.350;20.898;2023-07-31T01:43:58;666.22;;;221.93;;
36653;SDS011;22650;49.350;20.898;2023-07-31T01:46:32;604.28;;;221.02;;
36653;SDS011;22650;49.350;20.898;2023-07-31T01:49:06;608.42;;;227.05;;
36653;SDS011;22650;49.350;20.898;2023-07-31T01:51:40;584.33;;;213.90;;
36653;SDS011;22650;49.350;20.898;2023-07-31T01:54:14;603.03;;;214.45;;
36653;SDS011;22650;49.350;20.898;2023-07-31T01:56:49;585.08;;;192.50;;
36653;SDS011;22650;49.350;20.898;2023-07-31T01:59:24;675.17;;;228.18;;
36653;SDS011;22650;49.350;20.898;2023-07-31T02:01:58;852.45;;;313.00;;
36653;SDS011;22650;49.350;20.898;2023-07-31T02:04:34;789.33;;;286.95;;
36653;SDS011;22650;49.350;20.898;2023-07-31T02:07:10;693.00;;;266.05;;
36653;SDS011;22650;49.350;20.898;2023-07-31T02:09:44;784.75;;;270.90;;
36653;SDS011;22650;49.350;20.898;2023-07-31T02:12:19;938.70;;;335.65;;
36653;SDS011;22650;49.350;20.898;2023-07-31T02:14:55;666.97;;;251.40;;
36653;SDS011;22650;49.350;20.898;2023-07-31T02:17:29;716.33;;;263.40;;
36653;SDS011;22650;49.350;20.898;2023-07-31T02:20:05;786.97;;;278.17;;
36653;SDS011;22650;49.350;20.898;2023-07-31T02:22:40;749.42;;;277.98;;
36653;SDS011;22650;49.350;20.898;2023-07-31T02:25:14;731.05;;;224.77;;
36653;SDS011;22650;49.350;20.898;2023-07-31T02:27:49;715.03;;;260.65;;
36653;SDS011;22650;49.350;20.898;2023-07-31T02:30:24;775.90;;;261.40;;
36653;SDS011;22650;49.350;20.898;2023-07-31T02:32:58;753.50;;;248.95;;
36653;SDS011;22650;49.350;20.898;2023-07-31T02:35:33;919.28;;;336.42;;
36653;SDS011;22650;49.350;20.898;2023-07-31T02:38:06;787.03;;;304.77;;
36653;SDS011;22650;49.350;20.898;2023-07-31T02:40:40;919.40;;;302.13;;
36653;SDS011;22650;49.350;20.898;2023-07-31T02:43:14;898.58;;;304.80;;
36653;SDS011;22650;49.350;20.898;2023-07-31T02:45:52;821.88;;;288.58;;
36653;SDS011;22650;49.350;20.898;2023-07-31T02:48:28;788.55;;;282.83;;
36653;SDS011;22650;49.350;20.898;2023-07-31T02:51:02;925.03;;;364.05;;
36653;SDS011;22650;49.350;20.898;2023-07-31T02:53:35;912.92;;;332.92;;
36653;SDS011;22650;49.350;20.898;2023-07-31T02:56:09;980.63;;;351.60;;
36653;SDS011;22650;49.350;20.898;2023-07-31T02:58:43;948.40;;;345.17;;
36653;SDS011;22650;49.350;20.898;2023-07-31T03:01:18;888.90;;;321.67;;
36653;SDS011;22650;49.350;20.898;2023-07-31T03:03:52;944.47;;;333.35;;
36653;SDS011;22650;49.350;20.898;2023-07-31T03:06:27;1183.57;;;471.02;;
36653;SDS011;22650;49.350;20.898;2023-07-31T03:09:01;1268.18;;;462.95;;
36653;SDS011;22650;49.350;20.898;2023-07-31T03:11:34;1275.63;;;443.60;;
36653;SDS011;22650;49.350;20.898;2023-07-31T03:14:08;1114.50;;;392.27;;
36653;SDS011;22650;49.350;20.898;2023-07-31T03:16:44;1028.78;;;382.83;;
36653;SDS011;22650;49.350;20.898;2023-07-31T03:19:18;1148.72;;;387.73;;
36653;SDS011;22650;49.350;20.898;2023-07-31T03:21:52;943.90;;;329.20;;
36653;SDS011;22650;49.350;20.898;2023-07-31T03:24:26;977.95;;;331.55;;
36653;SDS011;22650;49.350;20.898;2023-07-31T03:27:02;1002.63;;;355.98;;
36653;SDS011;22650;49.350;20.898;2023-07-31T03:29:37;941.22;;;343.05;;
36653;SDS011;22650;49.350;20.898;2023-07-31T03:32:13;887.20;;;338.65;;
36653;SDS011;22650;49.350;20.898;2023-07-31T03:34:47;934.30;;;326.65;;
36653;SDS011;22650;49.350;20.898;2023-07-31T03:37:21;666.55;;;257.98;;
36653;SDS011;22650;49.350;20.898;2023-07-31T03:39:55;898.85;;;319.48;;
36653;SDS011;22650;49.350;20.898;2023-07-31T03:42:29;677.38;;;255.05;;
36653;SDS011;22650;49.350;20.898;2023-07-31T03:45:03;733.55;;;276.50;;
36653;SDS011;22650;49.350;20.898;2023-07-31T03:47:40;1003.90;;;363.10;;
36653;SDS011;22650;49.350;20.898;2023-07-31T03:50:14;1150.47;;;393.42;;
36653;SDS011;22650;49.350;20.898;2023-07-31T03:52:48;892.78;;;297.50;;
36653;SDS011;22650;49.350;20.898;2023-07-31T03:55:22;770.72;;;276.60;;
36653;SDS011;22650;49.350;20.898;2023-07-31T03:57:58;720.63;;;260.05;;
36653;SDS011;22650;49.350;20.898;2023-07-31T04:00:33;849.67;;;294.30;;
36653;SDS011;22650;49.350;20.898;2023-07-31T04:03:08;851.80;;;253.40;;
36653;SDS011;22650;49.350;20.898;2023-07-31T04:05:42;855.53;;;325.58;;
36653;SDS011;22650;49.350;20.898;2023-07-31T04:08:16;970.25;;;358.15;;
36653;SDS011;22650;49.350;20.898;2023-07-31T04:10:50;613.28;;;225.90;;
36653;SDS011;22650;49.350;20.898;2023-07-31T04:13:24;903.60;;;317.60;;
36653;SDS011;22650;49.350;20.898;2023-07-31T04:15:59;1045.25;;;359.25;;
36653;SDS011;22650;49.350;20.898;2023-07-31T04:18:35;677.17;;;247.63;;
36653;SDS011;22650;49.350;20.898;2023-07-31T04:21:09;630.78;;;224.07;;
36653;SDS011;22650;49.350;20.898;2023-07-31T04:23:43;615.35;;;228.02;;
36653;SDS011;22650;49.350;20.898;2023-07-31T04:26:17;656.10;;;237.93;;
36653;SDS011;22650;49.350;20.898;2023-07-31T04:28:50;749.28;;;246.15;;
36653;SDS011;22650;49.350;20.898;2023-07-31T04:31:24;580.60;;;231.90;;
36653;SDS011;22650;49.350;20.898;2023-07-31T04:34:02;665.47;;;228.20;;
36653;SDS011;22650;49.350;20.898;2023-07-31T04:36:37;492.20;;;203.13;;
36653;SDS011;22650;49.350;20.898;2023-07-31T04:39:12;576.50;;;213.77;;
36653;SDS011;22650;49.350;20.898;2023-07-31T04:41:46;599.47;;;202.52;;
36653;SDS011;22650;49.350;20.898;2023-07-31T04:44:20;470.42;;;185.85;;
36653;SDS011;22650;49.350;20.898;2023-07-31T04:46:58;690.08;;;252.70;;
36653;SDS011;22650;49.350;20.898;2023-07-31T04:49:50;882.13;;;304.13;;
36653;SDS011;22650;49.350;20.898;2023-07-31T04:52:30;581.38;;;244.00;;
36653;SDS011;22650;49.350;20.898;2023-07-31T04:55:09;563.20;;;196.05;;
36653;SDS011;22650;49.350;20.898;2023-07-31T04:57:47;849.00;;;307.65;;
36653;SDS011;22650;49.350;20.898;2023-07-31T05:05:05;836.92;;;295.50;;
36653;SDS011;22650;49.350;20.898;2023-07-31T05:07:45;622.97;;;197.32;;
36653;SDS011;22650;49.350;20.898;2023-07-31T05:12:01;986.38;;;335.23;;
36653;SDS011;22650;49.350;20.898;2023-07-31T05:14:52;874.15;;;297.95;;
36653;SDS011;22650;49.350;20.898;2023-07-31T05:18:57;860.00;;;323.60;;
36653;SDS011;22650;49.350;20.898;2023-07-31T05:21:36;848.03;;;304.80;;
36653;SDS011;22650;49.350;20.898;2023-07-31T05:24:28;1018.30;;;407.20;;
36653;SDS011;22650;49.350;20.898;2023-07-31T05:27:15;1169.72;;;455.38;;
36653;SDS011;22650;49.350;20.898;2023-07-31T05:30:01;1532.78;;;568.30;;
36653;SDS011;22650;49.350;20.898;2023-07-31T05:33:05;1295.88;;;466.35;;
36653;SDS011;22650;49.350;20.898;2023-07-31T05:35:55;1568.55;;;590.35;;
36653;SDS011;22650;49.350;20.898;2023-07-31T05:38:37;1758.63;;;652.85;;
36653;SDS011;22650;49.350;20.898;2023-07-31T05:41:14;1617.65;;;604.70;;
36653;SDS011;22650;49.350;20.898;2023-07-31T05:43:50;1358.47;;;531.72;;
36653;SDS011;22650;49.350;20.898;2023-07-31T05:46:40;1475.05;;;556.75;;
36653;SDS011;22650;49.350;20.898;2023-07-31T05:49:14;1257.70;;;473.95;;
36653;SDS011;22650;49.350;20.898;2023-07-31T05:51:48;1292.63;;;488.35;;
36653;SDS011;22650;49.350;20.898;2023-07-31T05:54:24;1535.35;;;568.72;;
36653;SDS011;22650;49.350;20.898;2023-07-31T05:56:58;1192.35;;;449.13;;
36653;SDS011;22650;49.350;20.898;2023-07-31T05:59:32;1408.47;;;541.75;;
36653;SDS011;22650;49.350;20.898;2023-07-31T06:02:06;1126.45;;;461.88;;
36653;SDS011;22650;49.350;20.898;2023-07-31T06:04:40;1636.32;;;659.42;;
36653;SDS011;22650;49.350;20.898;2023-07-31T06:07:15;1166.53;;;459.88;;
36653;SDS011;22650;49.350;20.898;2023-07-31T06:09:50;1114.25;;;434.45;;
36653;SDS011;22650;49.350;20.898;2023-07-31T06:12:27;1518.63;;;618.60;;
36653;SDS011;22650;49.350;20.898;2023-07-31T06:15:02;1893.97;;;694.65;;
36653;SDS011;22650;49.350;20.898;2023-07-31T06:17:36;1709.03;;;644.25;;
36653;SDS011;22650;49.350;20.898;2023-07-31T06:20:11;1767.57;;;702.33;;
36653;SDS011;22650;49.350;20.898;2023-07-31T06:22:45;1532.30;;;628.63;;
36653;SDS011;22650;49.350;20.898;2023-07-31T06:25:21;1878.43;;;701.35;;
36653;SDS011;22650;49.350;20.898;2023-07-31T06:27:56;1999.90;;;813.08;;
36653;SDS011;22650;49.350;20.898;2023-07-31T06:30:32;1990.15;;;763.70;;
36653;SDS011;22650;49.350;20.898;2023-07-31T06:33:10;1999.90;;;839.05;;
36653;SDS011;22650;49.350;20.898;2023-07-31T06:35:47;1999.90;;;902.58;;
36653;SDS011;22650;49.350;20.898;2023-07-31T06:38:31;1999.90;;;999.90;;
36653;SDS011;22650;49.350;20.898;2023-07-31T06:48:15;1999.90;;;999.90;;
36653;SDS011;22650;49.350;20.898;2023-07-31T06:50:50;1999.90;;;999.90;;
36653;SDS011;22650;49.350;20.898;2023-07-31T06:53:26;1999.90;;;999.90;;
36653;SDS011;22650;49.350;20.898;2023-07-31T06:56:14;1999.90;;;999.90;;
36653;SDS011;22650;49.350;20.898;2023-07-31T06:59:12;1999.90;;;999.90;;
36653;SDS011;22650;49.350;20.898;2023-07-31T07:01:52;1999.90;;;999.90;;
36653;SDS011;22650;49.350;20.898;2023-07-31T07:04:39;1999.90;;;999.90;;
36653;SDS011;22650;49.350;20.898;2023-07-31T07:07:49;1999.90;;;699.45;;
36653;SDS011;22650;49.350;20.898;2023-07-31T07:10:37;1999.90;;;722.60;;
36653;SDS011;22650;49.350;20.898;2023-07-31T07:14:25;1999.90;;;999.90;;
36653;SDS011;22650;49.350;20.898;2023-07-31T07:23:57;1999.90;;;999.90;;
36653;SDS011;22650;49.350;20.898;2023-07-31T07:26:59;1999.90;;;999.90;;
36653;SDS011;22650;49.350;20.898;2023-07-31T07:29:43;1999.90;;;999.90;;
36653;SDS011;22650;49.350;20.898;2023-07-31T07:32:20;1999.90;;;999.90;;
36653;SDS011;22650;49.350;20.898;2023-07-31T07:34:55;1999.90;;;999.90;;
36653;SDS011;22650;49.350;20.898;2023-07-31T07:37:29;1999.90;;;999.90;;
36653;SDS011;22650;49.350;20.898;2023-07-31T07:40:05;1999.90;;;999.90;;
36653;SDS011;22650;49.350;20.898;2023-07-31T07:42:45;1999.90;;;999.90;;
36653;SDS011;22650;49.350;20.898;2023-07-31T07:45:19;1999.90;;;999.90;;
36653;SDS011;22650;49.350;20.898;2023-07-31T07:47:55;1999.90;;;999.90;;
36653;SDS011;22650;49.350;20.898;2023-07-31T07:50:33;1999.90;;;999.90;;
36653;SDS011;22650;49.350;20.898;2023-07-31T07:53:07;1999.90;;;999.90;;
36653;SDS011;22650;49.350;20.898;2023-07-31T07:55:41;1999.90;;;999.90;;
36653;SDS011;22650;49.350;20.898;2023-07-31T07:58:15;1999.90;;;999.90;;
36653;SDS011;22650;49.350;20.898;2023-07-31T08:00:51;1999.90;;;999.90;;
36653;SDS011;22650;49.350;20.898;2023-07-31T08:03:29;1999.90;;;999.90;;
36653;SDS011;22650;49.350;20.898;2023-07-31T08:06:04;1999.90;;;999.90;;
36653;SDS011;22650;49.350;20.898;2023-07-31T08:08:41;1999.90;;;999.90;;
36653;SDS011;22650;49.350;20.898;2023-07-31T08:11:15;1999.90;;;999.90;;
36653;SDS011;22650;49.350;20.898;2023-07-31T08:13:49;1999.90;;;999.90;;
36653;SDS011;22650;49.350;20.898;2023-07-31T08:16:28;1999.90;;;999.90;;
36653;SDS011;22650;49.350;20.898;2023-07-31T08:19:06;1999.90;;;999.90;;
36653;SDS011;22650;49.350;20.898;2023-07-31T08:21:41;1999.90;;;999.90;;
36653;SDS011;22650;49.350;20.898;2023-07-31T08:24:15;1999.90;;;999.90;;
36653;SDS011;22650;49.350;20.898;2023-07-31T08:26:49;1999.90;;;999.90;;
36653;SDS011;22650;49.350;20.898;2023-07-31T08:29:24;1999.90;;;999.90;;
36653;SDS011;22650;49.350;20.898;2023-07-31T08:31:58;1999.90;;;999.90;;
36653;SDS011;22650;49.350;20.898;2023-07-31T08:34:32;1999.90;;;999.90;;
36653;SDS011;22650;49.350;20.898;2023-07-31T08:37:08;1999.90;;;999.90;;
36653;SDS011;22650;49.350;20.898;2023-07-31T08:39:43;1999.90;;;999.90;;
36653;SDS011;22650;49.350;20.898;2023-07-31T08:42:17;1999.90;;;999.90;;
36653;SDS011;22650;49.350;20.898;2023-07-31T08:44:51;1999.90;;;999.90;;
36653;SDS011;22650;49.350;20.898;2023-07-31T08:47:26;1999.90;;;999.90;;
36653;SDS011;22650;49.350;20.898;2023-07-31T08:50:01;1999.90;;;999.90;;
36653;SDS011;22650;49.350;20.898;2023-07-31T08:52:37;1999.90;;;999.90;;
36653;SDS011;22650;49.350;20.898;2023-07-31T08:55:11;1999.90;;;999.90;;
36653;SDS011;22650;49.350;20.898;2023-07-31T08:57:46;1999.90;;;999.90;;
36653;SDS011;22650;49.350;20.898;2023-07-31T09:00:22;1999.90;;;999.90;;
36653;SDS011;22650;49.350;20.898;2023-07-31T09:02:59;1999.90;;;999.90;;
36653;SDS011;22650;49.350;20.898;2023-07-31T09:05:36;1999.90;;;999.90;;
36653;SDS011;22650;49.350;20.898;2023-07-31T09:08:14;1999.90;;;999.90;;
36653;SDS011;22650;49.350;20.898;2023-07-31T09:10:51;1999.90;;;999.90;;
36653;SDS011;22650;49.350;20.898;2023-07-31T09:13:27;1999.90;;;999.90;;
36653;SDS011;22650;49.350;20.898;2023-07-31T09:16:02;1999.90;;;999.90;;
36653;SDS011;22650;49.350;20.898;2023-07-31T09:18:45;1999.90;;;999.90;;
36653;SDS011;22650;49.350;20.898;2023-07-31T09:21:33;1999.90;;;999.90;;
36653;SDS011;22650;49.350;20.898;2023-07-31T09:24:28;1999.90;;;999.90;;
36653;SDS011;22650;49.350;20.898;2023-07-31T09:27:05;1999.90;;;999.90;;
36653;SDS011;22650;49.350;20.898;2023-07-31T09:29:39;1999.90;;;999.90;;
36653;SDS011;22650;49.350;20.898;2023-07-31T09:32:15;1999.90;;;999.90;;
36653;SDS011;22650;49.350;20.898;2023-07-31T09:34:49;1999.90;;;999.90;;
36653;SDS011;22650;49.350;20.898;2023-07-31T09:37:23;1999.90;;;999.90;;
36653;SDS011;22650;49.350;20.898;2023-07-31T09:39:59;1999.90;;;999.90;;
36653;SDS011;22650;49.350;20.898;2023-07-31T09:42:33;1999.90;;;999.90;;
36653;SDS011;22650;49.350;20.898;2023-07-31T09:45:08;1999.90;;;999.90;;
36653;SDS011;22650;49.350;20.898;2023-07-31T09:47:45;1999.90;;;999.90;;
36653;SDS011;22650;49.350;20.898;2023-07-31T09:50:20;1999.90;;;999.90;;
36653;SDS011;22650;49.350;20.898;2023-07-31T09:52:55;1999.90;;;999.90;;
36653;SDS011;22650;49.350;20.898;2023-07-31T09:55:31;1999.90;;;999.90;;
36653;SDS011;22650;49.350;20.898;2023-07-31T09:58:05;1999.90;;;999.90;;
36653;SDS011;22650;49.350;20.898;2023-07-31T10:00:39;1999.90;;;999.90;;
36653;SDS011;22650;49.350;20.898;2023-07-31T10:03:13;1999.90;;;999.90;;
36653;SDS011;22650;49.350;20.898;2023-07-31T10:05:49;1999.90;;;999.90;;
36653;SDS011;22650;49.350;20.898;2023-07-31T10:08:27;1999.90;;;999.90;;
36653;SDS011;22650;49.350;20.898;2023-07-31T10:11:04;1999.90;;;999.90;;
36653;SDS011;22650;49.350;20.898;2023-07-31T10:13:39;1999.90;;;999.90;;
36653;SDS011;22650;49.350;20.898;2023-07-31T10:16:15;1999.90;;;999.90;;
36653;SDS011;22650;49.350;20.898;2023-07-31T10:18:49;1999.90;;;999.90;;
36653;SDS011;22650;49.350;20.898;2023-07-31T10:21:24;1999.90;;;999.90;;
36653;SDS011;22650;49.350;20.898;2023-07-31T10:23:58;1999.90;;;999.90;;
36653;SDS011;22650;49.350;20.898;2023-07-31T10:26:34;1999.90;;;999.90;;
36653;SDS011;22650;49.350;20.898;2023-07-31T10:29:11;1999.90;;;999.90;;
36653;SDS011;22650;49.350;20.898;2023-07-31T10:31:45;1999.90;;;999.90;;
36653;SDS011;22650;49.350;20.898;2023-07-31T10:34:21;1999.90;;;999.90;;
36653;SDS011;22650;49.350;20.898;2023-07-31T10:39:57;1999.90;;;999.90;;
36653;SDS011;22650;49.350;20.898;2023-07-31T10:42:34;1999.90;;;999.90;;
36653;SDS011;22650;49.350;20.898;2023-07-31T10:45:10;1999.90;;;999.90;;
36653;SDS011;22650;49.350;20.898;2023-07-31T10:47:45;1999.90;;;999.90;;
36653;SDS011;22650;49.350;20.898;2023-07-31T10:50:20;1999.90;;;999.90;;
36653;SDS011;22650;49.350;20.898;2023-07-31T10:52:56;1999.90;;;999.90;;
36653;SDS011;22650;49.350;20.898;2023-07-31T10:55:31;1999.90;;;999.90;;
36653;SDS011;22650;49.350;20.898;2023-07-31T10:58:07;1999.90;;;999.90;;
36653;SDS011;22650;49.350;20.898;2023-07-31T11:00:43;1999.90;;;999.90;;
36653;SDS011;22650;49.350;20.898;2023-07-31T11:03:18;1999.90;;;999.90;;
36653;SDS011;22650;49.350;20.898;2023-07-31T11:05:59;1999.90;;;999.90;;
36653;SDS011;22650;49.350;20.898;2023-07-31T11:08:35;1999.90;;;999.90;;
36653;SDS011;22650;49.350;20.898;2023-07-31T11:11:14;1999.90;;;999.90;;
36653;SDS011;22650;49.350;20.898;2023-07-31T11:13:52;1999.90;;;999.90;;
36653;SDS011;22650;49.350;20.898;2023-07-31T11:16:27;1999.90;;;999.90;;
36653;SDS011;22650;49.350;20.898;2023-07-31T11:19:01;1999.90;;;999.90;;
36653;SDS011;22650;49.350;20.898;2023-07-31T11:21:35;1999.90;;;999.90;;
36653;SDS011;22650;49.350;20.898;2023-07-31T11:24:12;1999.90;;;999.90;;
36653;SDS011;22650;49.350;20.898;2023-07-31T11:26:49;1999.90;;;999.90;;
36653;SDS011;22650;49.350;20.898;2023-07-31T11:29:26;1999.90;;;999.90;;
36653;SDS011;22650;49.350;20.898;2023-07-31T11:32:01;1999.90;;;999.90;;
36653;SDS011;22650;49.350;20.898;2023-07-31T11:37:24;1999.90;;;999.90;;
36653;SDS011;22650;49.350;20.898;2023-07-31T11:40:11;1999.90;;;999.90;;
36653;SDS011;22650;49.350;20.898;2023-07-31T11:42:45;1999.90;;;999.90;;
36653;SDS011;22650;49.350;20.898;2023-07-31T11:45:20;1999.90;;;999.90;;
36653;SDS011;22650;49.350;20.898;2023-07-31T11:47:57;1999.90;;;999.90;;
36653;SDS011;22650;49.350;20.898;2023-07-31T11:50:30;1999.90;;;999.90;;
36653;SDS011;22650;49.350;20.898;2023-07-31T11:53:09;1999.90;;;999.90;;
36653;SDS011;22650;49.350;20.898;2023-07-31T11:55:42;1999.90;;;999.90;;
36653;SDS011;22650;49.350;20.898;2023-07-31T11:58:18;1999.90;;;999.90;;
36653;SDS011;22650;49.350;20.898;2023-07-31T12:00:54;1999.90;;;999.90;;
36653;SDS011;22650;49.350;20.898;2023-07-31T12:03:28;1999.90;;;999.90;;
36653;SDS011;22650;49.350;20.898;2023-07-31T12:06:02;1999.90;;;999.90;;
36653;SDS011;22650;49.350;20.898;2023-07-31T12:08:36;1999.90;;;999.90;;
36653;SDS011;22650;49.350;20.898;2023-07-31T12:11:10;1999.90;;;999.90;;
36653;SDS011;22650;49.350;20.898;2023-07-31T12:13:45;1999.90;;;999.90;;
36653;SDS011;22650;49.350;20.898;2023-07-31T12:16:20;1999.90;;;999.90;;
36653;SDS011;22650;49.350;20.898;2023-07-31T12:18:53;1999.90;;;999.90;;
36653;SDS011;22650;49.350;20.898;2023-07-31T12:21:27;1999.90;;;999.90;;
36653;SDS011;22650;49.350;20.898;2023-07-31T12:24:01;1999.90;;;999.90;;
36653;SDS011;22650;49.350;20.898;2023-07-31T12:26:35;1999.90;;;999.90;;
36653;SDS011;22650;49.350;20.898;2023-07-31T12:29:09;1999.90;;;999.90;;
36653;SDS011;22650;49.350;20.898;2023-07-31T12:31:44;1999.90;;;999.90;;
36653;SDS011;22650;49.350;20.898;2023-07-31T12:34:19;1999.90;;;999.90;;
36653;SDS011;22650;49.350;20.898;2023-07-31T12:36:53;1999.90;;;999.90;;
36653;SDS011;22650;49.350;20.898;2023-07-31T12:39:28;1999.90;;;999.90;;
36653;SDS011;22650;49.350;20.898;2023-07-31T12:42:02;1999.90;;;999.90;;
36653;SDS011;22650;49.350;20.898;2023-07-31T12:44:36;1999.90;;;999.90;;
36653;SDS011;22650;49.350;20.898;2023-07-31T12:47:11;1999.90;;;999.90;;
36653;SDS011;22650;49.350;20.898;2023-07-31T12:49:46;1999.90;;;999.90;;
36653;SDS011;22650;49.350;20.898;2023-07-31T12:52:20;1999.90;;;999.90;;
36653;SDS011;22650;49.350;20.898;2023-07-31T12:54:54;1999.90;;;999.90;;
36653;SDS011;22650;49.350;20.898;2023-07-31T12:57:27;1999.90;;;999.90;;
36653;SDS011;22650;49.350;20.898;2023-07-31T13:00:01;1999.90;;;999.90;;
36653;SDS011;22650;49.350;20.898;2023-07-31T13:02:36;1999.90;;;999.90;;
36653;SDS011;22650;49.350;20.898;2023-07-31T13:05:10;1999.90;;;999.90;;
36653;SDS011;22650;49.350;20.898;2023-07-31T13:07:45;1999.90;;;999.90;;
36653;SDS011;22650;49.350;20.898;2023-07-31T13:10:21;1999.90;;;999.90;;
36653;SDS011;22650;49.350;20.898;2023-07-31T13:12:55;1999.90;;;999.90;;
36653;SDS011;22650;49.350;20.898;2023-07-31T13:15:29;1999.90;;;999.90;;
36653;SDS011;22650;49.350;20.898;2023-07-31T13:18:04;1999.90;;;999.90;;
36653;SDS011;22650;49.350;20.898;2023-07-31T13:20:38;1999.90;;;999.90;;
36653;SDS011;22650;49.350;20.898;2023-07-31T13:23:12;1999.90;;;999.90;;
36653;SDS011;22650;49.350;20.898;2023-07-31T13:25:45;1999.90;;;999.90;;
36653;SDS011;22650;49.350;20.898;2023-07-31T13:28:19;1999.90;;;999.90;;
36653;SDS011;22650;49.350;20.898;2023-07-31T13:30:52;1999.90;;;999.90;;
36653;SDS011;22650;49.350;20.898;2023-07-31T13:33:27;1999.90;;;999.90;;
36653;SDS011;22650;49.350;20.898;2023-07-31T13:36:08;1999.90;;;999.90;;
36653;SDS011;22650;49.350;20.898;2023-07-31T13:38:43;1999.90;;;999.90;;
36653;SDS011;22650;49.350;20.898;2023-07-31T13:41:17;1999.90;;;999.90;;
36653;SDS011;22650;49.350;20.898;2023-07-31T13:43:50;1999.90;;;999.90;;
36653;SDS011;22650;49.350;20.898;2023-07-31T13:46:24;1999.90;;;999.90;;
36653;SDS011;22650;49.350;20.898;2023-07-31T13:48:59;1999.90;;;999.90;;
36653;SDS011;22650;49.350;20.898;2023-07-31T13:51:33;1999.90;;;999.90;;
36653;SDS011;22650;49.350;20.898;2023-07-31T13:54:07;1999.90;;;999.90;;
36653;SDS011;22650;49.350;20.898;2023-07-31T13:56:43;1999.90;;;999.90;;
36653;SDS011;22650;49.350;20.898;2023-07-31T13:59:17;1999.90;;;999.90;;
36653;SDS011;22650;49.350;20.898;2023-07-31T14:01:53;1999.90;;;999.90;;
36653;SDS011;22650;49.350;20.898;2023-07-31T14:04:28;1999.90;;;999.90;;
36653;SDS011;22650;49.350;20.898;2023-07-31T14:07:01;1999.90;;;999.90;;
36653;SDS011;22650;49.350;20.898;2023-07-31T14:09:36;1999.90;;;999.90;;
36653;SDS011;22650;49.350;20.898;2023-07-31T14:12:09;1999.90;;;999.90;;
36653;SDS011;22650;49.350;20.898;2023-07-31T14:14:43;1999.90;;;999.90;;
36653;SDS011;22650;49.350;20.898;2023-07-31T14:17:18;1999.90;;;999.90;;
36653;SDS011;22650;49.350;20.898;2023-07-31T14:19:53;1999.90;;;999.90;;
36653;SDS011;22650;49.350;20.898;2023-07-31T14:22:27;1999.90;;;999.90;;
36653;SDS011;22650;49.350;20.898;2023-07-31T14:25:01;1999.90;;;999.90;;
36653;SDS011;22650;49.350;20.898;2023-07-31T14:27:35;1999.90;;;999.90;;
36653;SDS011;22650;49.350;20.898;2023-07-31T14:30:09;1999.90;;;999.90;;
36653;SDS011;22650;49.350;20.898;2023-07-31T14:32:42;1999.90;;;999.90;;
36653;SDS011;22650;49.350;20.898;2023-07-31T14:35:18;1999.90;;;999.90;;
36653;SDS011;22650;49.350;20.898;2023-07-31T14:37:51;1999.90;;;999.90;;
36653;SDS011;22650;49.350;20.898;2023-07-31T14:40:25;1999.90;;;999.90;;
36653;SDS011;22650;49.350;20.898;2023-07-31T14:42:59;1999.90;;;999.90;;
36653;SDS011;22650;49.350;20.898;2023-07-31T14:45:33;1999.90;;;999.90;;
36653;SDS011;22650;49.350;20.898;2023-07-31T14:48:06;1999.90;;;999.90;;
36653;SDS011;22650;49.350;20.898;2023-07-31T14:50:41;1999.90;;;999.90;;
36653;SDS011;22650;49.350;20.898;2023-07-31T14:53:15;1999.90;;;999.90;;
36653;SDS011;22650;49.350;20.898;2023-07-31T14:55:49;1999.90;;;999.90;;
36653;SDS011;22650;49.350;20.898;2023-07-31T14:58:22;1999.90;;;999.90;;
36653;SDS011;22650;49.350;20.898;2023-07-31T15:00:56;1999.90;;;999.90;;